createdAt,value
2019-05-11T00:00:22.651Z,14.40
2019-05-11T00:02:57.167Z,13.03
2019-05-11T00:05:31.047Z,14.93
2019-05-11T00:08:05.008Z,15.63
2019-05-11T00:10:41.077Z,15.88
2019-05-11T00:13:14.893Z,16.25
2019-05-11T00:15:48.789Z,16.73
2019-05-11T00:18:23.098Z,16.67
2019-05-11T00:20:57.302Z,16.42
2019-05-11T00:23:31.804Z,17.37
2019-05-11T00:26:05.809Z,16.75
2019-05-11T00:28:40.050Z,17.30
2019-05-11T00:31:13.344Z,16.52
2019-05-11T00:33:47.458Z,16.05
2019-05-11T00:36:21.100Z,16.00
2019-05-11T00:38:54.667Z,16.05
2019-05-11T00:41:28.445Z,16.75
2019-05-11T00:44:02.298Z,16.60
2019-05-11T00:46:35.629Z,16.85
2019-05-11T00:49:09.306Z,16.17
2019-05-11T00:51:42.678Z,15.95
2019-05-11T00:54:16.901Z,16.65
2019-05-11T00:56:51.768Z,16.77
2019-05-11T00:59:25.631Z,16.37
2019-05-11T01:01:59.871Z,16.80
2019-05-11T01:04:33.577Z,16.73
2019-05-11T01:07:07.670Z,16.85
2019-05-11T01:09:41.927Z,15.75
2019-05-11T01:12:15.720Z,16.52
2019-05-11T01:14:49.097Z,16.07
2019-05-11T01:17:22.895Z,16.85
2019-05-11T01:19:56.590Z,16.57
2019-05-11T01:22:30.839Z,15.98
2019-05-11T01:25:04.645Z,15.95
2019-05-11T01:27:38.008Z,17.32
2019-05-11T01:30:11.377Z,15.38
2019-05-11T01:32:45.917Z,16.23
2019-05-11T01:35:20.368Z,15.50
2019-05-11T01:37:55.459Z,16.65
2019-05-11T01:40:29.635Z,15.75
2019-05-11T01:43:03.834Z,15.83
2019-05-11T01:45:37.427Z,17.07
2019-05-11T01:48:11.658Z,16.70
2019-05-11T01:50:48.628Z,14.80
2019-05-11T01:53:23.200Z,16.15
2019-05-11T01:55:56.541Z,17.05
2019-05-11T02:01:44.273Z,16.17
2019-05-11T02:04:18.501Z,15.25
2019-05-11T02:06:52.789Z,15.68
2019-05-11T02:09:27.029Z,14.63
2019-05-11T02:12:01.074Z,14.95
2019-05-11T02:14:34.862Z,14.25
2019-05-11T02:17:08.214Z,15.75
2019-05-11T02:19:45.033Z,15.08
2019-05-11T02:22:18.980Z,15.43
2019-05-11T02:24:52.842Z,14.98
2019-05-11T02:27:26.955Z,14.58
2019-05-11T02:30:00.744Z,14.35
2019-05-11T02:32:34.504Z,14.80
2019-05-11T02:35:08.646Z,15.00
2019-05-11T02:37:42.409Z,14.85
2019-05-11T02:40:18.911Z,15.60
2019-05-11T02:42:53.644Z,14.28
2019-05-11T02:45:43.269Z,15.32
2019-05-11T02:48:17.550Z,15.15
2019-05-11T02:50:52.198Z,15.30
2019-05-11T02:53:27.373Z,14.60
2019-05-11T02:56:02.977Z,14.25
2019-05-11T02:58:36.399Z,14.13
2019-05-11T03:01:10.788Z,15.05
2019-05-11T03:03:44.527Z,13.83
2019-05-11T03:06:18.501Z,14.40
2019-05-11T03:08:52.308Z,14.98
2019-05-11T03:11:25.670Z,13.58
2019-05-11T03:13:59.072Z,13.90
2019-05-11T03:16:33.349Z,13.55
2019-05-11T03:19:07.615Z,14.38
2019-05-11T03:21:41.845Z,14.75
2019-05-11T03:24:16.096Z,14.50
2019-05-11T03:26:51.023Z,14.58
2019-05-11T03:29:25.356Z,15.58
2019-05-11T03:31:59.857Z,13.55
2019-05-11T03:34:34.003Z,15.13
2019-05-11T03:37:08.410Z,13.72
2019-05-11T03:39:43.248Z,14.90
2019-05-11T03:42:17.162Z,14.73
2019-05-11T03:44:50.946Z,14.38
2019-05-11T03:47:23.860Z,14.40
2019-05-11T03:49:58.153Z,14.40
2019-05-11T03:52:31.964Z,14.43
2019-05-11T03:55:05.962Z,15.48
2019-05-11T03:57:40.304Z,14.20
2019-05-11T04:00:14.706Z,14.50
2019-05-11T04:02:48.510Z,15.43
2019-05-11T04:05:22.596Z,15.23
2019-05-11T04:07:57.517Z,15.35
2019-05-11T04:10:31.866Z,14.45
2019-05-11T04:13:04.782Z,15.83
2019-05-11T04:15:38.990Z,15.03
2019-05-11T04:18:12.694Z,15.43
2019-05-11T04:20:46.617Z,14.75
2019-05-11T04:23:20.453Z,16.15
2019-05-11T04:25:54.184Z,15.93
2019-05-11T04:28:28.430Z,16.15
2019-05-11T04:31:02.279Z,16.52
2019-05-11T04:33:37.179Z,19.17
2019-05-11T04:36:12.490Z,17.85
2019-05-11T04:38:46.387Z,16.70
2019-05-11T04:41:20.881Z,17.55
2019-05-11T04:43:55.155Z,17.20
2019-05-11T04:46:30.093Z,19.48
2019-05-11T04:49:04.610Z,18.77
2019-05-11T04:51:38.603Z,17.87
2019-05-11T04:54:12.357Z,18.37
2019-05-11T04:56:46.670Z,17.23
2019-05-11T04:59:20.348Z,17.98
2019-05-11T05:01:54.142Z,18.05
2019-05-11T05:04:28.953Z,17.45
2019-05-11T05:07:10.705Z,18.40
2019-05-11T05:09:44.600Z,18.55
2019-05-11T05:12:18.125Z,19.20
2019-05-11T05:14:51.945Z,19.30
2019-05-11T05:17:25.866Z,18.42
2019-05-11T05:20:00.128Z,17.40
2019-05-11T05:22:35.153Z,17.50
2019-05-11T05:25:08.886Z,17.77
2019-05-11T05:27:43.237Z,17.45
2019-05-11T05:30:18.099Z,18.65
2019-05-11T05:32:51.296Z,19.52
2019-05-11T05:35:25.869Z,19.02
2019-05-11T05:37:59.438Z,18.87
2019-05-11T05:40:33.098Z,19.40
2019-05-11T05:43:06.908Z,18.73
2019-05-11T05:45:40.618Z,17.52
2019-05-11T05:48:14.647Z,17.70
2019-05-11T05:50:48.006Z,17.60
2019-05-11T05:53:21.925Z,18.55
2019-05-11T05:55:56.282Z,19.00
2019-05-11T05:58:29.847Z,21.48
2019-05-11T06:01:05.233Z,26.00
2019-05-11T06:03:39.021Z,21.82
2019-05-11T06:06:13.241Z,19.00
2019-05-11T06:08:49.889Z,18.90
2019-05-11T06:11:23.590Z,17.95
2019-05-11T06:13:57.419Z,17.82
2019-05-11T06:16:31.513Z,17.02
2019-05-11T06:19:04.574Z,16.65
2019-05-11T06:21:38.341Z,16.25
2019-05-11T06:24:11.714Z,15.75
2019-05-11T06:26:45.066Z,16.30
2019-05-11T06:29:21.697Z,16.42
2019-05-11T06:31:53.432Z,16.40
2019-05-11T06:34:26.335Z,17.05
2019-05-11T06:36:59.739Z,16.10
2019-05-11T06:39:38.858Z,15.70
2019-05-11T06:42:12.586Z,14.45
2019-05-11T06:44:46.663Z,16.57
2019-05-11T06:47:19.952Z,16.17
2019-05-11T06:49:53.689Z,17.20
2019-05-11T06:52:29.973Z,16.23
2019-05-11T06:55:08.386Z,15.90
2019-05-11T06:57:42.605Z,16.75
2019-05-11T07:00:18.713Z,16.00
2019-05-11T07:02:52.821Z,16.20
2019-05-11T07:05:26.425Z,15.88
2019-05-11T07:08:00.704Z,13.68
2019-05-11T07:10:34.553Z,14.50
2019-05-11T07:13:08.775Z,13.75
2019-05-11T07:15:42.736Z,13.85
2019-05-11T07:18:17.020Z,14.43
2019-05-11T07:20:51.577Z,18.90
2019-05-11T07:23:25.862Z,18.23
2019-05-11T07:26:00.539Z,13.18
2019-05-11T07:28:35.949Z,12.50
2019-05-11T07:31:13.321Z,12.00
2019-05-11T07:33:48.594Z,11.45
2019-05-11T07:36:21.961Z,11.75
2019-05-11T07:38:58.044Z,13.13
2019-05-11T07:41:31.637Z,13.75
2019-05-11T07:44:04.987Z,15.83
2019-05-11T07:46:38.695Z,15.40
2019-05-11T07:49:13.143Z,12.75
2019-05-11T07:51:48.129Z,11.00
2019-05-11T07:54:22.831Z,7.95
2019-05-11T07:56:58.223Z,6.78
2019-05-11T07:59:31.614Z,8.10
2019-05-11T08:02:05.302Z,7.62
2019-05-11T08:04:40.938Z,8.93
2019-05-11T08:07:15.406Z,10.38
2019-05-11T08:09:50.135Z,9.60
2019-05-11T08:12:24.132Z,6.90
2019-05-11T08:15:05.939Z,7.62
2019-05-11T08:17:33.207Z,7.42
2019-05-11T08:20:08.361Z,8.43
2019-05-11T08:22:41.914Z,4.25
2019-05-11T08:25:15.444Z,5.97
2019-05-11T08:27:49.460Z,8.10
2019-05-11T08:30:23.662Z,8.45
2019-05-11T08:32:58.363Z,7.28
2019-05-11T08:35:32.881Z,6.92
2019-05-11T08:38:08.652Z,6.08
2019-05-11T08:40:41.326Z,6.28
2019-05-11T08:43:15.152Z,7.17
2019-05-11T08:45:48.744Z,6.90
2019-05-11T08:48:22.225Z,7.12
2019-05-11T08:50:58.236Z,7.05
2019-05-11T08:53:32.206Z,7.10
2019-05-11T08:56:05.426Z,8.10
2019-05-11T08:58:39.203Z,7.55
2019-05-11T09:01:15.096Z,8.30
2019-05-11T09:03:48.030Z,6.17
2019-05-11T09:06:21.955Z,5.35
2019-05-11T09:08:58.200Z,6.12
2019-05-11T09:11:31.741Z,5.15
2019-05-11T09:14:04.950Z,5.05
2019-05-11T09:16:38.787Z,5.37
2019-05-11T09:19:12.955Z,5.87
2019-05-11T09:21:48.216Z,5.35
2019-05-11T09:24:22.173Z,4.45
2019-05-11T09:26:55.437Z,4.58
2019-05-11T09:29:29.165Z,4.62
2019-05-11T09:32:03.224Z,4.40
2019-05-11T09:34:37.754Z,4.62
2019-05-11T09:37:10.840Z,4.25
2019-05-11T09:39:45.027Z,5.05
2019-05-11T09:42:18.891Z,4.58
2019-05-11T09:44:53.040Z,4.28
2019-05-11T09:47:27.900Z,4.97
2019-05-11T09:50:01.712Z,4.40
2019-05-11T09:52:35.407Z,4.90
2019-05-11T09:55:10.656Z,4.83
2019-05-11T09:57:44.842Z,5.25
2019-05-11T10:00:18.084Z,4.70
2019-05-11T10:02:51.385Z,4.37
2019-05-11T10:05:25.437Z,4.78
2019-05-11T10:07:59.558Z,4.80
2019-05-11T10:10:33.194Z,3.75
2019-05-11T10:13:08.092Z,3.80
2019-05-11T10:15:41.278Z,3.60
2019-05-11T10:18:14.323Z,3.60
2019-05-11T10:20:48.210Z,3.98
2019-05-11T10:23:21.162Z,3.50
2019-05-11T10:25:54.497Z,3.90
2019-05-11T10:28:28.890Z,4.25
2019-05-11T10:31:02.626Z,3.40
2019-05-11T10:33:38.228Z,4.00
2019-05-11T10:36:12.684Z,4.08
2019-05-11T10:38:48.619Z,3.95
2019-05-11T10:41:22.206Z,3.30
2019-05-11T10:43:58.086Z,3.50
2019-05-11T10:46:31.877Z,3.72
2019-05-11T10:49:07.811Z,3.50
2019-05-11T10:51:41.224Z,3.22
2019-05-11T10:54:14.542Z,3.60
2019-05-11T10:56:48.634Z,3.70
2019-05-11T10:59:22.984Z,3.37
2019-05-11T11:01:59.045Z,3.00
2019-05-11T11:04:32.505Z,3.20
2019-05-11T11:07:07.748Z,3.42
2019-05-11T11:09:42.276Z,2.75
2019-05-11T11:12:18.611Z,3.37
2019-05-11T11:14:51.964Z,3.30
2019-05-11T11:17:25.269Z,2.58
2019-05-11T11:19:58.589Z,2.72
2019-05-11T11:22:39.975Z,2.80
2019-05-11T11:25:07.853Z,3.15
2019-05-11T11:27:41.389Z,2.72
2019-05-11T11:30:17.983Z,3.10
2019-05-11T11:32:51.648Z,2.90
2019-05-11T11:35:27.809Z,2.90
2019-05-11T11:38:01.263Z,2.67
2019-05-11T11:40:35.325Z,2.22
2019-05-11T11:43:08.938Z,2.52
2019-05-11T11:45:42.772Z,3.08
2019-05-11T11:48:18.887Z,2.77
2019-05-11T11:50:52.408Z,2.62
2019-05-11T11:53:27.908Z,2.55
2019-05-11T11:56:02.298Z,2.30
2019-05-11T11:58:38.164Z,2.83
2019-05-11T12:01:12.236Z,2.83
2019-05-11T12:03:45.524Z,2.70
2019-05-11T12:06:19.773Z,2.55
2019-05-11T12:08:53.983Z,2.20
2019-05-11T12:11:28.199Z,2.95
2019-05-11T12:14:02.390Z,2.40
2019-05-11T12:16:38.582Z,2.62
2019-05-11T12:19:11.974Z,2.35
2019-05-11T12:21:45.682Z,2.67
2019-05-11T12:24:19.023Z,2.65
2019-05-11T12:26:52.817Z,2.58
2019-05-11T12:29:28.201Z,2.98
2019-05-11T12:32:03.655Z,2.75
2019-05-11T12:34:37.562Z,2.50
2019-05-11T12:37:11.674Z,2.95
2019-05-11T12:39:45.325Z,2.80
2019-05-11T12:42:19.489Z,2.42
2019-05-11T12:44:53.729Z,2.37
2019-05-11T12:47:28.308Z,2.50
2019-05-11T12:50:02.057Z,2.60
2019-05-11T12:52:35.660Z,2.20
2019-05-11T12:55:08.862Z,2.42
2019-05-11T12:57:42.221Z,2.30
2019-05-11T13:00:18.203Z,2.00
2019-05-11T13:02:51.875Z,1.72
2019-05-11T13:05:25.583Z,2.30
2019-05-11T13:07:59.630Z,2.10
2019-05-11T13:10:33.840Z,2.17
2019-05-11T13:13:08.982Z,2.00
2019-05-11T13:15:43.370Z,2.12
2019-05-11T13:18:18.558Z,2.35
2019-05-11T13:20:50.978Z,2.30
2019-05-11T13:23:25.102Z,2.00
2019-05-11T13:25:58.895Z,1.90
2019-05-11T13:28:32.601Z,2.20
2019-05-11T13:31:08.256Z,1.80
2019-05-11T13:33:41.705Z,2.22
2019-05-11T13:36:15.841Z,1.98
2019-05-11T13:38:49.612Z,2.02
2019-05-11T13:41:23.395Z,2.08
2019-05-11T13:43:57.695Z,2.00
2019-05-11T13:46:31.854Z,1.92
2019-05-11T13:49:05.513Z,2.22
2019-05-11T13:51:39.115Z,1.82
2019-05-11T13:54:12.917Z,2.22
2019-05-11T13:56:48.342Z,2.02
2019-05-11T13:59:22.309Z,1.95
2019-05-11T14:01:58.254Z,2.15
2019-05-11T14:04:32.276Z,2.20
2019-05-11T14:07:08.045Z,2.62
2019-05-11T14:09:41.490Z,2.22
2019-05-11T14:12:18.045Z,2.65
2019-05-11T14:14:53.225Z,2.80
2019-05-11T14:17:28.802Z,2.67
2019-05-11T14:20:02.056Z,2.60
2019-05-11T14:22:35.768Z,2.60
2019-05-11T14:25:08.630Z,2.70
2019-05-11T14:27:42.756Z,2.35
2019-05-11T14:30:15.736Z,2.62
2019-05-11T14:32:49.857Z,2.50
2019-05-11T14:35:23.587Z,2.30
2019-05-11T14:37:58.802Z,2.58
2019-05-11T14:40:33.100Z,2.27
2019-05-11T14:43:08.262Z,2.50
2019-05-11T14:45:41.478Z,2.35
2019-05-11T14:48:24.166Z,2.33
2019-05-11T14:50:51.137Z,2.80
2019-05-11T14:53:25.151Z,2.40
2019-05-11T14:55:59.334Z,2.50
2019-05-11T14:58:33.244Z,2.80
2019-05-11T15:01:08.880Z,2.95
2019-05-11T15:03:42.617Z,3.50
2019-05-11T15:06:16.025Z,2.65
2019-05-11T15:08:50.139Z,2.92
2019-05-11T15:11:24.230Z,2.70
2019-05-11T15:13:57.598Z,2.85
2019-05-11T15:16:31.318Z,2.83
2019-05-11T15:19:05.117Z,2.42
2019-05-11T15:21:39.532Z,2.37
2019-05-11T15:24:13.770Z,3.00
2019-05-11T15:26:48.684Z,2.85
2019-05-11T15:29:22.705Z,2.72
2019-05-11T15:31:57.862Z,3.12
2019-05-11T15:34:31.326Z,3.27
2019-05-11T15:37:04.689Z,3.22
2019-05-11T15:39:38.102Z,3.58
2019-05-11T15:42:16.925Z,2.70
2019-05-11T15:44:48.426Z,2.80
2019-05-11T15:47:23.962Z,2.55
2019-05-11T15:49:58.075Z,2.77
2019-05-11T15:52:31.669Z,2.87
2019-05-11T15:55:07.926Z,2.80
2019-05-11T15:57:41.060Z,3.00
2019-05-11T16:00:14.973Z,3.17
2019-05-11T16:02:49.185Z,3.08
2019-05-11T16:05:23.940Z,3.22
2019-05-11T16:08:01.732Z,3.00
2019-05-11T16:10:35.010Z,3.67
2019-05-11T16:13:09.431Z,3.30
2019-05-11T16:15:43.515Z,3.75
2019-05-11T16:18:18.967Z,4.55
2019-05-11T16:20:52.149Z,4.40
2019-05-11T16:23:28.229Z,4.30
2019-05-11T16:26:01.634Z,3.65
2019-05-11T16:28:34.391Z,3.42
2019-05-11T16:31:09.146Z,3.50
2019-05-11T16:33:42.949Z,3.50
2019-05-11T16:36:18.066Z,3.22
2019-05-11T16:38:51.294Z,3.37
2019-05-11T16:41:24.844Z,3.90
2019-05-11T16:43:59.003Z,3.72
2019-05-11T16:46:32.589Z,4.37
2019-05-11T16:49:05.255Z,4.72
2019-05-11T16:51:38.972Z,5.35
2019-05-11T16:54:12.373Z,7.78
2019-05-11T16:56:48.555Z,7.22
2019-05-11T16:59:21.531Z,7.33
2019-05-11T17:01:55.645Z,7.87
2019-05-11T17:04:31.253Z,8.45
2019-05-11T17:07:03.332Z,7.35
2019-05-11T17:09:37.843Z,7.72
2019-05-11T17:12:10.077Z,6.95
2019-05-11T17:15:00.950Z,7.03
2019-05-11T17:17:33.113Z,7.70
2019-05-11T17:20:07.772Z,7.58
2019-05-11T17:22:40.245Z,7.70
2019-05-11T17:25:13.331Z,8.33
2019-05-11T17:27:48.256Z,6.65
2019-05-11T17:30:20.090Z,5.53
2019-05-11T17:32:54.390Z,5.03
2019-05-11T17:35:27.470Z,5.40
2019-05-11T17:38:01.050Z,5.67
2019-05-11T17:40:34.137Z,5.87
2019-05-11T17:43:08.862Z,6.50
2019-05-11T17:45:40.287Z,5.92
2019-05-11T17:48:13.171Z,8.00
2019-05-11T17:50:46.202Z,8.83
2019-05-11T17:53:19.024Z,12.28
2019-05-11T17:55:52.242Z,11.38
2019-05-11T17:58:25.188Z,9.53
2019-05-11T18:00:58.806Z,8.63
2019-05-11T18:03:31.088Z,8.23
2019-05-11T18:06:03.957Z,5.90
2019-05-11T18:08:37.150Z,5.67
2019-05-11T18:11:09.628Z,5.55
2019-05-11T18:13:44.083Z,5.50
2019-05-11T18:16:19.923Z,6.10
2019-05-11T18:18:52.928Z,6.25
2019-05-11T18:21:25.433Z,6.90
2019-05-11T18:23:57.435Z,7.47
2019-05-11T18:26:32.038Z,9.00
2019-05-11T18:29:06.203Z,10.70
2019-05-11T18:31:39.037Z,10.32
2019-05-11T18:34:13.281Z,9.23
2019-05-11T18:36:48.549Z,9.28
2019-05-11T18:39:21.791Z,9.80
2019-05-11T18:41:55.131Z,10.25
2019-05-11T18:44:27.708Z,11.20
2019-05-11T18:47:01.163Z,14.78
2019-05-11T18:49:34.347Z,14.03
2019-05-11T18:52:08.223Z,15.90
2019-05-11T18:54:40.612Z,18.15
2019-05-11T18:57:32.344Z,17.73
2019-05-11T19:00:08.068Z,15.75
2019-05-11T19:02:40.393Z,12.35
2019-05-11T19:05:12.942Z,7.70
2019-05-11T19:07:48.624Z,7.15
2019-05-11T19:10:22.586Z,5.83
2019-05-11T19:12:56.161Z,5.40
2019-05-11T19:15:28.921Z,5.78
2019-05-11T19:18:02.109Z,5.78
2019-05-11T19:23:12.208Z,5.92
2019-05-11T19:25:45.328Z,6.55
2019-05-11T19:28:18.781Z,6.70
2019-05-11T19:30:52.838Z,6.28
2019-05-11T19:33:27.829Z,5.70
2019-05-11T19:36:00.229Z,6.12
2019-05-11T19:38:33.767Z,6.90
2019-05-11T19:41:08.019Z,5.78
2019-05-11T19:43:41.703Z,6.45
2019-05-11T19:46:15.124Z,6.62
2019-05-11T19:48:47.956Z,6.33
2019-05-11T19:51:21.246Z,5.97
2019-05-11T19:53:54.744Z,6.67
2019-05-11T19:56:29.080Z,6.75
2019-05-11T19:59:02.520Z,7.20
2019-05-11T20:01:35.991Z,7.87
2019-05-11T20:04:10.136Z,7.75
2019-05-11T20:06:47.829Z,8.45
2019-05-11T20:09:20.721Z,8.30
2019-05-11T20:11:54.650Z,8.25
2019-05-11T20:14:28.369Z,8.15
2019-05-11T20:17:01.895Z,7.60
2019-05-11T20:19:34.099Z,7.83
2019-05-11T20:22:06.639Z,7.83
2019-05-11T20:24:39.697Z,8.15
2019-05-11T20:27:13.325Z,9.10
2019-05-11T20:29:47.780Z,9.43
2019-05-11T20:32:20.712Z,8.58
2019-05-11T20:34:53.578Z,8.43
2019-05-11T20:37:28.802Z,8.40
2019-05-11T20:40:03.104Z,8.93
2019-05-11T20:42:38.082Z,8.28
2019-05-11T20:45:11.668Z,7.53
2019-05-11T20:47:48.422Z,7.47
2019-05-11T20:50:21.779Z,7.83
2019-05-11T20:52:55.272Z,6.80
2019-05-11T20:55:28.684Z,7.62
2019-05-11T20:58:01.869Z,7.80
2019-05-11T21:00:34.850Z,7.97
2019-05-11T21:03:09.231Z,8.10
2019-05-11T21:05:41.713Z,7.83
2019-05-11T21:08:14.962Z,8.20
2019-05-11T21:10:49.001Z,9.05
2019-05-11T21:13:21.926Z,8.50
2019-05-11T21:15:54.440Z,8.10
2019-05-11T21:18:28.738Z,8.65
2019-05-11T21:21:01.541Z,8.68
2019-05-11T21:23:34.563Z,9.33
2019-05-11T21:26:09.949Z,8.75
2019-05-11T21:28:43.704Z,8.95
2019-05-11T21:31:18.561Z,8.90
2019-05-11T21:33:51.937Z,9.18
2019-05-11T21:36:25.197Z,8.80
2019-05-11T21:38:58.762Z,9.50
2019-05-11T21:41:32.371Z,8.88
2019-05-11T21:44:07.786Z,8.53
2019-05-11T21:46:41.010Z,9.40
2019-05-11T21:49:15.156Z,8.65
2019-05-11T21:52:03.334Z,8.13
2019-05-11T21:54:23.532Z,8.50
2019-05-11T21:56:57.812Z,8.63
2019-05-11T21:59:31.981Z,9.48
2019-05-11T22:02:08.155Z,8.43
2019-05-11T22:04:40.673Z,8.63
2019-05-11T22:07:13.997Z,8.60
2019-05-11T22:09:47.437Z,8.90
2019-05-11T22:12:21.781Z,8.58
2019-05-11T22:14:57.982Z,8.90
2019-05-11T22:17:31.695Z,9.60
2019-05-11T22:20:04.284Z,9.78
2019-05-11T22:22:38.888Z,9.05
2019-05-11T22:25:12.448Z,8.98
2019-05-11T22:27:48.562Z,9.13
2019-05-11T22:30:21.540Z,9.45
2019-05-11T22:32:55.431Z,10.20
2019-05-11T22:35:29.910Z,10.00
2019-05-11T22:38:03.696Z,9.68
2019-05-11T22:40:38.322Z,9.60
2019-05-11T22:43:12.511Z,9.68
2019-05-11T22:45:48.506Z,9.25
2019-05-11T22:48:21.832Z,9.28
2019-05-11T22:50:55.104Z,9.83
2019-05-11T22:53:43.377Z,9.33
2019-05-11T22:56:04.249Z,8.93
2019-05-11T22:58:38.075Z,10.00
2019-05-11T23:01:12.708Z,9.78
2019-05-11T23:03:47.452Z,10.00
2019-05-11T23:06:23.601Z,9.00
2019-05-11T23:08:58.517Z,9.93
2019-05-11T23:11:31.201Z,8.93
2019-05-11T23:14:04.484Z,9.88
2019-05-11T23:16:37.778Z,9.38
2019-05-11T23:19:11.605Z,9.20
2019-05-11T23:21:45.386Z,10.18
2019-05-11T23:24:18.781Z,9.93
2019-05-11T23:26:52.593Z,9.70
2019-05-11T23:29:27.906Z,9.90
2019-05-11T23:32:01.638Z,10.80
2019-05-11T23:34:35.291Z,10.98
2019-05-11T23:37:08.409Z,11.68
2019-05-11T23:39:41.722Z,10.15
2019-05-11T23:42:14.607Z,10.08
2019-05-11T23:44:48.411Z,9.98
2019-05-11T23:47:21.878Z,10.05
2019-05-11T23:49:55.627Z,10.63
2019-05-11T23:52:29.582Z,9.68
2019-05-11T23:55:03.161Z,10.23
2019-05-11T23:57:37.954Z,10.43
